Itaja, Brazil
Current Conditions -  °F | °C
As of 1:00 PM on Tuesday 21 Oct 2014 (Local Time) from SBSR Reporting Station
Few Clouds Few Clouds  
Wind Chill: 84°   Ceiling: Unl
Heat Index: 84°   Visibility: 6mi
Dew Point: 59°   Wind: 9mph
Humidity: 42%   Direction: 140°SE
Pressure: 30.06"   Gusts: NA
Location:  19.07°S, 51.54°W
Report Text: SBSR 211500Z 14008KT 9999 FEW045 29/15 Q1018
Loading
Personal Weather Stations






























Interactive Weather Map
Tropical Storm Tracking
New forecast layout! Learn more

10-Day Weather Forecast

Advertisements
Track Severe Weather on mobile